Time;durP1;ratioP1;P1;durP2;ratioP2;P2;SDS_P1;SDS_P2;PMS_P1;PMS_P2;Temp;Humidity;BMP_temperature;BMP_pressure;BME280_temperature;BME280_humidity;BME280_pressure;Samples;Min_cycle;Max_cycle;Signal;HPM_P1;HPM_P2
2021/06/09 00:00:35;;;;;;;1.70;1.50;;;24.50;55.80;;;;;;5053918;28;20047;-36
2021/06/09 00:03:01;;;;;;;1.63;1.30;;;24.60;55.50;;;;;;5054676;28;20041;-42
2021/06/09 00:05:26;;;;;;;1.70;1.60;;;24.70;55.10;;;;;;5052295;28;20044;-42
2021/06/09 00:07:52;;;;;;;1.90;1.80;;;24.80;55.00;;;;;;5051643;28;20052;-42
2021/06/09 00:10:17;;;;;;;1.48;1.38;;;24.70;55.10;;;;;;5055509;28;20132;-41
2021/06/09 00:12:43;;;;;;;1.60;1.50;;;24.40;55.70;;;;;;5054602;28;20049;-42
2021/06/09 00:15:10;;;;;;;1.50;1.40;;;24.50;55.30;;;;;;5054374;28;20052;-41
2021/06/09 00:17:36;;;;;;;1.58;1.48;;;24.60;55.20;;;;;;5053453;28;20505;-41
2021/06/09 00:20:07;;;;;;;1.42;1.33;;;24.60;55.10;;;;;;5049769;28;20044;-42
2021/06/09 00:22:33;;;;;;;1.45;1.30;;;24.60;55.00;;;;;;5053638;28;20072;-42
2021/06/09 00:24:58;;;;;;;2.30;1.70;;;24.70;55.00;;;;;;5055174;28;20530;-42
2021/06/09 00:27:25;;;;;;;1.33;1.23;;;24.70;55.00;;;;;;5053577;28;20090;-40
2021/06/09 00:29:51;;;;;;;2.35;1.42;;;24.60;55.10;;;;;;5054067;28;20052;-42
2021/06/09 00:32:16;;;;;;;2.28;1.40;;;24.60;55.10;;;;;;5051445;28;20040;-41
2021/06/09 00:34:42;;;;;;;1.73;1.42;;;24.30;55.50;;;;;;5051781;28;20045;-42
2021/06/09 00:37:07;;;;;;;1.63;1.35;;;24.20;55.70;;;;;;5055419;28;20595;-42
2021/06/09 00:39:33;;;;;;;1.20;1.10;;;24.30;55.50;;;;;;5052547;28;20045;-42
2021/06/09 00:41:58;;;;;;;1.52;1.40;;;24.40;55.30;;;;;;5053650;28;20128;-41
2021/06/09 00:44:24;;;;;;;1.20;1.10;;;24.40;55.30;;;;;;5051824;28;20388;-42
2021/06/09 00:46:50;;;;;;;1.33;1.23;;;24.40;55.10;;;;;;5032823;28;20094;-42
2021/06/09 00:49:15;;;;;;;1.38;1.27;;;24.40;55.30;;;;;;5055410;28;20041;-42
2021/06/09 00:51:41;;;;;;;1.80;1.48;;;24.40;55.20;;;;;;5041433;28;20128;-42
2021/06/09 00:54:07;;;;;;;1.30;1.20;;;24.20;55.70;;;;;;5040634;28;20099;-41
2021/06/09 00:56:34;;;;;;;1.40;1.30;;;24.20;55.60;;;;;;5064483;28;20028;-41
2021/06/09 00:59:00;;;;;;;2.20;1.30;;;24.30;55.50;;;;;;5049170;28;20038;-41
2021/06/09 01:01:27;;;;;;;1.23;1.13;;;24.50;55.20;;;;;;5054363;28;20053;-41
2021/06/09 01:03:53;;;;;;;1.40;1.30;;;24.40;55.20;;;;;;5053517;28;20049;-41
2021/06/09 01:06:19;;;;;;;1.35;1.20;;;24.20;55.40;;;;;;5052489;28;20041;-41
2021/06/09 01:08:44;;;;;;;1.55;1.17;;;24.30;55.30;;;;;;5053404;28;20053;-37
2021/06/09 01:11:16;;;;;;;1.60;1.30;;;24.30;55.20;;;;;;5050545;28;20140;-38
2021/06/09 01:13:42;;;;;;;1.30;1.10;;;24.40;55.10;;;;;;5043096;28;20503;-42
2021/06/09 01:16:07;;;;;;;1.30;1.20;;;24.30;55.20;;;;;;5054796;28;20044;-41
2021/06/09 01:18:34;;;;;;;1.60;1.10;;;24.30;55.40;;;;;;5052888;28;20123;-42
2021/06/09 01:20:59;;;;;;;1.20;1.10;;;24.20;55.30;;;;;;5053649;28;20041;-42
2021/06/09 01:23:25;;;;;;;1.15;1.05;;;24.00;55.90;;;;;;5051676;28;20481;-41
2021/06/09 01:25:51;;;;;;;1.63;1.33;;;24.00;55.80;;;;;;5049856;28;20045;-42
2021/06/09 01:28:17;;;;;;;1.42;1.33;;;24.10;55.40;;;;;;5037328;28;20693;-43
2021/06/09 01:30:42;;;;;;;1.88;1.27;;;24.10;56.20;;;;;;5052694;28;20076;-42
2021/06/09 01:33:08;;;;;;;2.45;1.20;;;24.10;55.50;;;;;;5053193;28;20443;-42
2021/06/09 01:35:34;;;;;;;3.15;1.15;;;24.20;55.30;;;;;;5052223;28;20051;-42
2021/06/09 01:37:59;;;;;;;1.25;1.15;;;24.10;56.10;;;;;;5033130;28;20407;-41
2021/06/09 01:40:25;;;;;;;1.20;1.20;;;24.10;55.20;;;;;;5054222;28;20046;-41
2021/06/09 01:42:51;;;;;;;1.02;1.00;;;24.10;55.20;;;;;;5052881;28;20045;-42
2021/06/09 01:45:22;;;;;;;1.27;1.17;;;24.20;55.10;;;;;;5053194;28;20048;-41
2021/06/09 01:47:48;;;;;;;1.20;1.17;;;24.10;55.40;;;;;;5032093;28;20037;-42
2021/06/09 01:50:14;;;;;;;0.95;0.95;;;24.00;55.40;;;;;;5044134;28;20531;-42
2021/06/09 01:52:40;;;;;;;2.20;1.25;;;23.90;55.60;;;;;;5044618;28;20384;-42
2021/06/09 01:55:07;;;;;;;2.30;1.50;;;23.90;55.50;;;;;;5034545;28;20098;-41
2021/06/09 01:57:33;;;;;;;1.92;1.38;;;24.10;55.40;;;;;;5032609;28;20408;-41
2021/06/09 01:59:59;;;;;;;2.28;1.40;;;24.10;55.20;;;;;;5032681;28;20037;-41
2021/06/09 02:02:24;;;;;;;1.45;1.35;;;23.90;55.60;;;;;;5030935;28;20045;-37
2021/06/09 02:04:50;;;;;;;1.48;1.38;;;24.00;55.30;;;;;;5023664;28;20044;-38
2021/06/09 02:07:16;;;;;;;1.65;1.38;;;24.10;55.00;;;;;;5038700;28;20413;-42
2021/06/09 02:09:41;;;;;;;2.33;1.30;;;24.10;55.00;;;;;;5051464;28;20099;-42
2021/06/09 02:12:07;;;;;;;1.30;1.10;;;24.00;55.30;;;;;;5028697;28;20042;-42
2021/06/09 02:14:34;;;;;;;1.33;1.23;;;23.90;55.50;;;;;;5044558;28;20044;-41
2021/06/09 02:16:59;;;;;;;1.30;1.20;;;23.90;55.50;;;;;;5052417;28;20045;-42
2021/06/09 02:19:25;;;;;;;1.90;1.30;;;23.80;55.60;;;;;;5057656;28;20125;-38
2021/06/09 02:21:51;;;;;;;1.40;1.30;;;23.90;55.40;;;;;;5056865;28;20450;-42
2021/06/09 02:24:17;;;;;;;1.50;1.40;;;24.00;55.30;;;;;;5055303;28;20114;-42
2021/06/09 02:26:42;;;;;;;1.58;1.48;;;24.10;55.10;;;;;;5055840;28;20135;-42
2021/06/09 02:29:09;;;;;;;2.17;1.33;;;24.00;55.10;;;;;;5053106;28;20036;-41
2021/06/09 02:31:38;;;;;;;2.28;1.30;;;24.00;55.20;;;;;;5036999;28;20041;-42
2021/06/09 02:34:06;;;;;;;1.60;1.48;;;24.00;55.30;;;;;;5055519;28;20044;-42
2021/06/09 02:36:31;;;;;;;1.25;1.17;;;23.90;55.30;;;;;;5054587;28;20049;-41
2021/06/09 02:38:57;;;;;;;2.50;1.33;;;23.90;55.30;;;;;;5055023;28;20101;-42
2021/06/09 02:41:23;;;;;;;1.40;1.30;;;24.00;55.20;;;;;;5053794;28;20052;-41
2021/06/09 02:43:49;;;;;;;1.90;1.40;;;23.90;55.30;;;;;;5053307;28;20045;-42
2021/06/09 02:46:19;;;;;;;1.17;1.08;;;23.90;55.30;;;;;;5057831;28;20069;-43
2021/06/09 02:48:46;;;;;;;1.38;1.27;;;23.90;55.20;;;;;;5054386;28;20477;-41
2021/06/09 02:51:16;;;;;;;1.55;1.45;;;23.90;55.10;;;;;;5054898;28;20411;-43
2021/06/09 02:53:53;;;;;;;1.40;1.25;;;24.10;54.90;;;;;;5054157;28;20123;-41
2021/06/09 02:56:49;;;;;;;1.45;1.35;;;24.00;54.90;;;;;;5052545;28;20075;-42
2021/06/09 03:00:02;;;;;;;2.03;1.75;;;23.90;55.60;;;;;;5015521;28;20056;-41
2021/06/09 03:02:49;;;;;;;3.35;1.55;;;23.80;56.00;;;;;;5030201;28;20051;-39
2021/06/09 03:05:19;;;;;;;1.73;1.55;;;23.80;56.00;;;;;;5039107;28;20063;-39
2021/06/09 03:08:02;;;;;;;2.22;1.83;;;23.90;55.80;;;;;;5032718;28;20388;-38
2021/06/09 03:10:39;;;;;;;2.05;1.85;;;23.90;55.60;;;;;;5029183;28;20049;-41
2021/06/09 03:13:20;;;;;;;1.77;1.67;;;24.00;55.60;;;;;;5056244;28;20091;-36
2021/06/09 03:15:51;;;;;;;1.88;1.75;;;24.00;55.50;;;;;;5049958;28;20466;-41
2021/06/09 03:18:26;;;;;;;1.60;1.50;;;24.00;55.50;;;;;;5022889;28;20044;-41
2021/06/09 03:21:23;;;;;;;1.60;1.50;;;24.00;55.40;;;;;;5037619;28;20135;-43
2021/06/09 03:24:04;;;;;;;1.80;1.70;;;23.90;55.60;;;;;;4976826;28;20049;-42
2021/06/09 03:26:38;;;;;;;1.50;1.40;;;23.70;56.00;;;;;;4974757;28;20109;-41
2021/06/09 03:29:16;;;;;;;1.67;1.38;;;23.80;56.00;;;;;;4989953;28;20045;-41
2021/06/09 03:31:45;;;;;;;1.65;1.40;;;23.70;56.00;;;;;;4976423;28;20133;-42
2021/06/09 03:34:19;;;;;;;2.17;1.63;;;23.60;56.20;;;;;;4995036;28;20042;-42
2021/06/09 03:36:45;;;;;;;1.63;1.52;;;23.70;55.90;;;;;;4974745;28;20042;-43
2021/06/09 03:39:12;;;;;;;1.95;1.85;;;23.80;55.80;;;;;;4975105;28;20049;-42
2021/06/09 03:41:40;;;;;;;1.70;1.60;;;23.80;55.90;;;;;;4974145;28;20045;-42
2021/06/09 03:44:08;;;;;;;1.92;1.80;;;23.80;55.80;;;;;;4972758;28;20046;-42
2021/06/09 03:46:38;;;;;;;1.45;1.38;;;23.80;56.30;;;;;;4976798;28;20046;-41
2021/06/09 03:49:10;;;;;;;1.83;1.50;;;23.80;55.70;;;;;;4989818;28;20116;-42
2021/06/09 03:51:38;;;;;;;1.50;1.40;;;23.80;55.90;;;;;;4974468;28;20046;-42
2021/06/09 03:54:04;;;;;;;1.48;1.38;;;23.60;56.20;;;;;;4993208;28;20042;-41
2021/06/09 03:56:29;;;;;;;1.60;1.50;;;23.50;56.40;;;;;;4986384;28;20536;-41
2021/06/09 03:58:55;;;;;;;2.03;1.80;;;23.60;56.30;;;;;;5004226;28;20053;-42
2021/06/09 04:01:21;;;;;;;3.08;1.77;;;23.40;56.50;;;;;;5009479;28;20132;-41
2021/06/09 04:03:46;;;;;;;1.48;1.38;;;23.40;56.60;;;;;;5042415;28;20053;-41
2021/06/09 04:06:14;;;;;;;1.90;1.73;;;23.40;57.30;;;;;;5049370;28;20037;-42
2021/06/09 04:08:41;;;;;;;1.60;1.50;;;23.40;56.40;;;;;;5052875;28;20066;-41
2021/06/09 04:11:06;;;;;;;2.10;2.00;;;23.50;56.30;;;;;;5049409;28;20029;-42
2021/06/09 04:13:32;;;;;;;1.60;1.50;;;23.50;56.30;;;;;;5037146;28;20051;-41
2021/06/09 04:15:58;;;;;;;2.15;1.95;;;23.60;56.30;;;;;;5060410;28;20506;-42
2021/06/09 04:18:24;;;;;;;1.92;1.70;;;23.60;56.10;;;;;;5040572;28;20037;-42
2021/06/09 04:20:49;;;;;;;2.05;1.95;;;23.60;56.10;;;;;;5046443;28;20095;-42
2021/06/09 04:23:15;;;;;;;1.80;1.70;;;23.70;56.00;;;;;;5047054;28;20474;-42
2021/06/09 04:25:41;;;;;;;1.77;1.67;;;23.50;56.20;;;;;;5012070;28;20467;-42
2021/06/09 04:28:07;;;;;;;1.63;1.52;;;23.50;56.50;;;;;;5046226;28;20136;-42
2021/06/09 04:30:32;;;;;;;2.63;2.10;;;23.60;56.10;;;;;;5049901;28;20029;-41
2021/06/09 04:32:59;;;;;;;2.60;2.03;;;23.50;56.40;;;;;;5027871;28;20132;-42
2021/06/09 04:35:28;;;;;;;2.22;2.03;;;23.50;56.40;;;;;;5028141;28;20037;-42
2021/06/09 04:37:53;;;;;;;2.75;2.63;;;23.40;56.50;;;;;;5028923;28;20057;-42
2021/06/09 04:40:23;;;;;;;2.78;2.58;;;23.40;56.60;;;;;;5032390;28;20088;-42
2021/06/09 04:42:50;;;;;;;3.20;2.90;;;23.30;56.80;;;;;;5045566;28;20111;-42
2021/06/09 04:45:15;;;;;;;3.00;2.85;;;23.30;57.10;;;;;;5027964;28;20061;-42
2021/06/09 04:47:41;;;;;;;3.20;3.00;;;23.30;57.00;;;;;;5032181;28;20080;-43
2021/06/09 04:50:08;;;;;;;3.50;3.28;;;23.20;57.30;;;;;;5028499;28;20057;-42
2021/06/09 04:52:34;;;;;;;3.40;3.17;;;23.20;57.50;;;;;;5030522;28;20037;-42
2021/06/09 04:54:59;;;;;;;3.83;3.30;;;23.30;57.20;;;;;;5049825;28;20055;-42
2021/06/09 04:57:25;;;;;;;7.57;3.42;;;23.20;57.30;;;;;;5058420;28;20041;-42
2021/06/09 04:59:50;;;;;;;3.40;3.10;;;23.10;57.50;;;;;;5049841;28;20037;-44
2021/06/09 05:02:18;;;;;;;3.45;3.25;;;23.20;57.50;;;;;;5040246;28;20136;-44
2021/06/09 05:04:44;;;;;;;3.33;2.90;;;23.20;57.50;;;;;;5028199;28;20135;-43
2021/06/09 05:07:10;;;;;;;3.50;2.85;;;23.20;57.80;;;;;;5038092;28;20479;-44
2021/06/09 05:09:35;;;;;;;3.53;3.22;;;23.10;57.90;;;;;;5029969;28;20067;-39
2021/06/09 05:12:06;;;;;;;5.22;3.10;;;23.20;57.80;;;;;;5037411;28;20048;-43
2021/06/09 05:14:36;;;;;;;3.35;3.05;;;23.00;58.10;;;;;;5021506;28;20116;-43
2021/06/09 05:17:02;;;;;;;3.25;3.00;;;23.10;57.90;;;;;;5013918;28;20040;-43
2021/06/09 05:19:31;;;;;;;3.05;2.85;;;23.00;58.10;;;;;;5036665;28;20048;-45
2021/06/09 05:22:29;;;;;;;3.45;3.15;;;23.00;58.60;;;;;;5030739;28;20052;-42
2021/06/09 05:24:54;;;;;;;3.42;3.10;;;23.10;58.60;;;;;;5025829;28;20119;-43
2021/06/09 05:27:21;;;;;;;6.70;2.88;;;23.10;58.70;;;;;;5013576;28;20073;-43
2021/06/09 05:29:47;;;;;;;3.33;2.92;;;23.20;58.80;;;;;;5005937;28;20041;-43
2021/06/09 05:32:12;;;;;;;5.43;3.08;;;23.10;58.60;;;;;;5010189;28;20044;-40
2021/06/09 05:34:39;;;;;;;6.70;3.15;;;23.30;58.40;;;;;;5018231;28;20037;-40
2021/06/09 05:37:06;;;;;;;3.63;3.33;;;23.10;58.40;;;;;;5022968;28;20389;-40
2021/06/09 05:39:33;;;;;;;3.80;3.60;;;23.10;58.70;;;;;;5022491;28;20056;-40
2021/06/09 05:41:58;;;;;;;3.67;3.42;;;23.10;58.80;;;;;;5025812;28;20037;-41
2021/06/09 05:44:29;;;;;;;4.63;3.63;;;23.00;58.90;;;;;;5019850;28;20091;-41
2021/06/09 05:46:57;;;;;;;4.20;3.80;;;23.20;58.50;;;;;;5047387;28;20041;-40
2021/06/09 05:49:23;;;;;;;3.70;3.42;;;23.30;58.20;;;;;;5030059;28;20080;-42
2021/06/09 05:51:49;;;;;;;4.15;3.65;;;23.10;58.60;;;;;;5033667;28;20068;-42
2021/06/09 05:54:15;;;;;;;3.80;3.58;;;23.00;58.70;;;;;;5015594;28;20494;-36
2021/06/09 05:56:41;;;;;;;4.07;3.78;;;23.10;58.70;;;;;;5032742;28;20577;-42
2021/06/09 05:59:06;;;;;;;4.00;3.45;;;23.10;58.70;;;;;;5034638;28;20053;-42
2021/06/09 06:01:32;;;;;;;3.88;3.58;;;23.20;58.70;;;;;;5056148;28;20052;-43
2021/06/09 06:03:57;;;;;;;3.83;3.63;;;23.20;58.50;;;;;;5032531;28;20616;-43
2021/06/09 06:06:23;;;;;;;3.95;3.53;;;23.00;58.70;;;;;;5017666;28;20037;-43
2021/06/09 06:08:49;;;;;;;3.58;3.33;;;23.20;58.60;;;;;;5035053;28;20554;-42
2021/06/09 06:11:15;;;;;;;3.70;3.50;;;23.10;58.60;;;;;;5039317;28;20087;-40
2021/06/09 06:13:42;;;;;;;5.80;3.70;;;23.10;58.80;;;;;;5042387;28;20468;-42
2021/06/09 06:16:08;;;;;;;4.28;4.07;;;23.10;58.70;;;;;;5044133;28;20396;-43
2021/06/09 06:18:35;;;;;;;3.58;3.38;;;23.20;58.30;;;;;;5038533;28;20124;-42
2021/06/09 06:21:01;;;;;;;4.15;3.85;;;23.30;58.20;;;;;;5047560;28;20049;-43
2021/06/09 06:23:27;;;;;;;5.63;3.20;;;23.20;58.10;;;;;;5050833;28;20037;-43
2021/06/09 06:25:55;;;;;;;3.50;3.20;;;23.20;58.30;;;;;;5067987;28;20037;-43
2021/06/09 06:28:22;;;;;;;3.53;3.22;;;23.40;58.20;;;;;;5058439;28;20044;-43
2021/06/09 06:30:48;;;;;;;2.88;2.60;;;23.40;58.10;;;;;;5055663;28;20056;-43
2021/06/09 06:33:13;;;;;;;4.05;2.65;;;23.50;57.90;;;;;;5056207;28;20048;-44
2021/06/09 06:35:39;;;;;;;2.65;2.53;;;23.60;57.70;;;;;;5054404;28;20067;-46
2021/06/09 06:38:05;;;;;;;3.28;2.63;;;23.60;57.50;;;;;;5052162;28;20048;-42
2021/06/09 06:40:32;;;;;;;2.67;2.47;;;23.60;57.90;;;;;;5040320;28;20097;-43
2021/06/09 06:42:58;;;;;;;2.50;2.30;;;23.70;57.30;;;;;;5054795;28;20499;-43
2021/06/09 06:45:24;;;;;;;2.72;2.40;;;23.70;57.30;;;;;;5057630;28;20032;-43
2021/06/09 06:47:51;;;;;;;3.20;2.83;;;23.50;57.50;;;;;;5057503;28;20060;-43
2021/06/09 06:50:17;;;;;;;5.13;2.28;;;23.40;57.70;;;;;;5054538;28;20021;-43
2021/06/09 06:52:44;;;;;;;2.20;2.10;;;23.50;57.60;;;;;;5055430;28;20108;-42
2021/06/09 06:55:10;;;;;;;2.58;2.13;;;23.50;57.50;;;;;;5035517;28;20111;-42
2021/06/09 06:57:36;;;;;;;2.17;2.08;;;23.70;57.20;;;;;;5052629;28;20021;-43
2021/06/09 07:00:05;;;;;;;2.67;2.30;;;23.70;57.70;;;;;;5056756;28;20037;-44
2021/06/09 07:02:32;;;;;;;2.20;2.00;;;23.80;56.90;;;;;;5036202;28;20421;-43
2021/06/09 07:04:57;;;;;;;1.75;1.65;;;23.80;56.80;;;;;;5035821;28;20044;-43
2021/06/09 07:07:23;;;;;;;2.20;2.00;;;23.90;56.80;;;;;;5058400;28;20029;-43
2021/06/09 07:09:48;;;;;;;2.28;2.08;;;23.90;56.70;;;;;;5056132;28;20100;-43
2021/06/09 07:12:14;;;;;;;1.95;1.80;;;23.90;56.60;;;;;;5057183;28;20063;-43
2021/06/09 07:14:39;;;;;;;1.85;1.75;;;24.00;56.60;;;;;;5055708;28;20449;-42
2021/06/09 07:17:05;;;;;;;2.30;2.10;;;24.00;56.50;;;;;;5051846;28;20060;-43
2021/06/09 07:19:31;;;;;;;2.35;2.10;;;24.00;56.40;;;;;;5040467;28;20021;-43
2021/06/09 07:21:56;;;;;;;1.77;1.67;;;23.90;56.60;;;;;;5054979;28;20045;-42
2021/06/09 07:24:22;;;;;;;2.03;1.90;;;24.00;56.50;;;;;;5056882;28;20027;-43
2021/06/09 07:26:48;;;;;;;1.88;1.77;;;24.00;56.50;;;;;;5056814;28;20077;-43
2021/06/09 07:29:19;;;;;;;1.75;1.65;;;24.00;56.40;;;;;;5051191;28;20030;-43
2021/06/09 07:31:45;;;;;;;1.77;1.67;;;24.00;57.20;;;;;;5055007;28;20408;-42
2021/06/09 07:34:11;;;;;;;1.60;1.50;;;24.00;56.60;;;;;;5057699;28;20063;-43
2021/06/09 07:36:42;;;;;;;2.72;1.90;;;24.00;57.30;;;;;;5056494;28;20137;-42
2021/06/09 07:39:09;;;;;;;2.80;1.85;;;24.00;57.30;;;;;;5056814;28;20021;-43
2021/06/09 07:41:36;;;;;;;1.60;1.50;;;24.00;56.70;;;;;;5055308;28;20089;-43
2021/06/09 07:44:04;;;;;;;1.95;1.85;;;24.00;56.80;;;;;;5052608;28;20017;-43
2021/06/09 07:46:30;;;;;;;2.00;1.90;;;24.00;56.90;;;;;;5047713;28;20016;-43
2021/06/09 07:48:57;;;;;;;2.45;2.05;;;23.90;56.70;;;;;;5015576;28;20036;-43
2021/06/09 07:51:26;;;;;;;1.77;1.67;;;24.00;56.80;;;;;;5039392;28;20075;-43
2021/06/09 07:53:54;;;;;;;1.77;1.67;;;24.00;56.70;;;;;;5046111;28;20052;-43
2021/06/09 07:56:21;;;;;;;1.83;1.73;;;24.20;56.40;;;;;;5054552;28;20036;-44
2021/06/09 07:58:46;;;;;;;2.13;2.03;;;24.10;57.00;;;;;;5053772;28;20025;-37
2021/06/09 08:01:12;;;;;;;1.83;1.73;;;24.30;56.30;;;;;;5039953;28;20064;-42
2021/06/09 08:03:39;;;;;;;3.05;1.92;;;24.30;56.10;;;;;;5031819;28;20496;-43
2021/06/09 08:06:05;;;;;;;2.38;2.28;;;24.40;55.90;;;;;;5049246;28;20112;-43
2021/06/09 08:08:31;;;;;;;1.80;1.70;;;24.40;55.80;;;;;;5054522;28;20035;-43
2021/06/09 08:10:57;;;;;;;2.20;2.10;;;24.40;55.70;;;;;;5051340;28;20021;-43
2021/06/09 08:13:22;;;;;;;1.88;1.80;;;24.40;55.90;;;;;;5057275;28;20035;-43
2021/06/09 08:15:48;;;;;;;2.00;1.90;;;24.50;55.50;;;;;;5054830;28;20036;-43
2021/06/09 08:18:13;;;;;;;2.20;2.00;;;24.60;55.50;;;;;;5054118;28;20147;-43
2021/06/09 08:21:02;;;;;;;2.00;1.90;;;24.60;55.40;;;;;;5055563;28;20400;-42
2021/06/09 08:23:28;;;;;;;1.77;1.67;;;24.60;56.20;;;;;;5049012;28;20534;-42
2021/06/09 08:25:54;;;;;;;1.88;1.70;;;24.40;56.00;;;;;;5052094;28;20032;-42
2021/06/09 08:28:19;;;;;;;1.83;1.73;;;24.40;56.00;;;;;;5057354;28;20491;-43
2021/06/09 08:30:45;;;;;;;1.98;1.88;;;24.60;55.70;;;;;;5055234;28;20033;-43
2021/06/09 08:33:10;;;;;;;1.50;1.50;;;24.50;55.80;;;;;;5055273;28;20472;-43
2021/06/09 08:35:36;;;;;;;1.52;1.42;;;24.50;55.90;;;;;;5055408;28;20037;-43
2021/06/09 08:38:01;;;;;;;2.05;1.77;;;24.50;55.90;;;;;;5051108;28;20029;-42
2021/06/09 08:40:27;;;;;;;2.25;1.70;;;24.50;55.90;;;;;;5057229;28;20092;-42
2021/06/09 08:42:53;;;;;;;1.83;1.73;;;24.60;55.90;;;;;;5054226;28;20052;-42
2021/06/09 08:45:18;;;;;;;1.73;1.63;;;24.60;55.90;;;;;;5054263;28;20086;-42
2021/06/09 08:47:44;;;;;;;1.77;1.67;;;24.60;55.80;;;;;;5053845;28;20028;-42
2021/06/09 08:50:11;;;;;;;1.70;1.60;;;24.60;56.20;;;;;;5050353;28;20407;-42
2021/06/09 08:52:45;;;;;;;1.80;1.70;;;24.60;56.10;;;;;;5054404;28;20037;-40
2021/06/09 08:55:11;;;;;;;1.40;1.38;;;24.60;56.20;;;;;;5056542;28;20040;-42
2021/06/09 08:57:38;;;;;;;1.90;1.70;;;24.40;56.30;;;;;;5054405;28;20029;-42
2021/06/09 09:00:04;;;;;;;1.30;1.20;;;24.50;56.40;;;;;;5055036;28;20044;-42
2021/06/09 09:02:30;;;;;;;1.88;1.77;;;24.60;56.10;;;;;;5054586;28;20025;-42
2021/06/09 09:04:55;;;;;;;1.42;1.33;;;24.60;56.10;;;;;;5033252;28;20032;-42
2021/06/09 09:07:24;;;;;;;2.45;1.83;;;24.60;56.10;;;;;;5038300;28;20031;-43
2021/06/09 09:09:49;;;;;;;1.67;1.58;;;24.70;56.00;;;;;;5031011;28;20092;-42
2021/06/09 09:12:15;;;;;;;1.70;1.60;;;24.70;56.10;;;;;;5048155;28;20025;-42
2021/06/09 09:14:41;;;;;;;1.70;1.60;;;24.70;56.20;;;;;;5054879;28;20032;-43
2021/06/09 09:17:07;;;;;;;1.20;1.20;;;24.70;56.10;;;;;;5050568;28;20115;-43
2021/06/09 09:19:36;;;;;;;1.52;1.42;;;24.70;56.10;;;;;;5054466;28;20025;-42
2021/06/09 09:22:02;;;;;;;1.98;1.88;;;24.80;56.10;;;;;;5055434;28;20060;-42
2021/06/09 09:24:41;;;;;;;1.40;1.30;;;24.70;56.10;;;;;;5054655;28;20032;-42
2021/06/09 09:27:07;;;;;;;1.90;1.80;;;24.80;56.00;;;;;;5054569;28;20032;-42
2021/06/09 09:29:33;;;;;;;1.33;1.30;;;24.80;56.00;;;;;;5054419;28;20332;-42
2021/06/09 09:32:03;;;;;;;1.52;1.42;;;24.80;56.00;;;;;;5050066;28;20120;-42
2021/06/09 09:34:38;;;;;;;1.90;1.80;;;24.80;56.10;;;;;;5063436;28;20032;-43
2021/06/09 09:37:07;;;;;;;1.67;1.58;;;24.90;55.90;;;;;;5044969;28;20041;-43
2021/06/09 09:39:34;;;;;;;1.60;1.60;;;24.90;55.90;;;;;;5053518;28;20032;-44
2021/06/09 09:42:17;;;;;;;1.55;1.48;;;24.80;56.20;;;;;;5054330;28;20106;-45
2021/06/09 09:44:43;;;;;;;1.95;1.85;;;24.80;55.90;;;;;;5052959;28;20493;-43
2021/06/09 09:47:23;;;;;;;1.55;1.45;;;24.80;55.90;;;;;;5051006;28;20025;-43
2021/06/09 09:49:49;;;;;;;1.58;1.48;;;24.90;55.90;;;;;;5051872;28;20558;-43
2021/06/09 09:52:15;;;;;;;1.63;1.50;;;24.90;55.80;;;;;;5056137;28;20476;-43
2021/06/09 09:54:43;;;;;;;1.63;1.52;;;24.90;55.90;;;;;;5054485;28;20029;-45
2021/06/09 09:57:11;;;;;;;1.50;1.40;;;24.90;56.00;;;;;;5054464;28;20100;-37
2021/06/09 09:59:36;;;;;;;1.73;1.63;;;24.80;56.00;;;;;;5053868;28;20024;-44
2021/06/09 10:02:04;;;;;;;1.63;1.52;;;24.90;56.00;;;;;;5050269;28;20106;-43
2021/06/09 10:04:34;;;;;;;1.70;1.60;;;24.90;55.90;;;;;;5063471;28;20390;-43
2021/06/09 10:07:01;;;;;;;1.55;1.48;;;24.90;56.10;;;;;;5054865;28;20510;-43
2021/06/09 10:09:37;;;;;;;1.35;1.35;;;24.80;56.20;;;;;;5053086;28;20059;-43
2021/06/09 10:12:09;;;;;;;1.55;1.45;;;24.90;56.20;;;;;;5053903;28;20041;-43
2021/06/09 10:14:38;;;;;;;1.80;1.70;;;24.90;56.30;;;;;;5053826;28;20021;-41
2021/06/09 10:17:08;;;;;;;1.60;1.50;;;24.80;56.30;;;;;;5050063;28;20029;-41
2021/06/09 10:19:38;;;;;;;1.75;1.65;;;24.80;56.30;;;;;;5053575;28;20097;-42
2021/06/09 10:22:11;;;;;;;1.60;1.50;;;24.90;56.20;;;;;;5055290;28;20112;-42
2021/06/09 10:24:49;;;;;;;1.48;1.48;;;24.90;56.20;;;;;;5054089;28;20112;-41
2021/06/09 10:27:17;;;;;;;1.67;1.58;;;24.90;56.20;;;;;;5052790;28;20340;-40
2021/06/09 10:29:43;;;;;;;1.75;1.65;;;24.90;56.10;;;;;;5053800;28;20105;-42
2021/06/09 10:32:10;;;;;;;1.63;1.63;;;24.90;56.10;;;;;;5050457;28;20116;-41
2021/06/09 10:34:37;;;;;;;1.85;1.75;;;24.90;56.10;;;;;;5055127;28;20062;-41
2021/06/09 10:37:05;;;;;;;1.60;1.50;;;24.90;56.70;;;;;;5057944;28;20036;-42
2021/06/09 10:39:33;;;;;;;1.50;1.40;;;25.00;55.90;;;;;;5056195;28;20398;-43
2021/06/09 10:42:04;;;;;;;1.67;1.58;;;24.80;56.20;;;;;;5056017;28;20036;-43
2021/06/09 10:44:34;;;;;;;1.52;1.45;;;24.80;56.50;;;;;;5051025;28;20032;-43
2021/06/09 10:47:00;;;;;;;2.05;1.95;;;24.80;56.50;;;;;;5050655;28;20040;-43
2021/06/09 10:49:27;;;;;;;1.95;1.85;;;24.90;56.50;;;;;;5041097;28;20017;-43
2021/06/09 10:51:53;;;;;;;2.40;2.30;;;24.90;56.60;;;;;;5047143;28;20036;-43
2021/06/09 10:54:21;;;;;;;3.10;2.03;;;24.80;56.50;;;;;;5062597;28;20108;-43
2021/06/09 10:56:47;;;;;;;2.05;1.95;;;24.90;56.50;;;;;;5057415;28;20571;-40
2021/06/09 10:59:18;;;;;;;2.75;2.55;;;24.80;56.60;;;;;;5054214;28;20396;-43
2021/06/09 11:01:44;;;;;;;2.35;2.22;;;24.80;56.60;;;;;;5055130;28;20519;-43
2021/06/09 11:04:09;;;;;;;2.80;2.17;;;24.70;56.70;;;;;;5039688;28;20025;-43
2021/06/09 11:06:50;;;;;;;2.58;2.30;;;24.80;56.60;;;;;;5025517;28;20081;-40
2021/06/09 11:09:21;;;;;;;2.50;2.15;;;24.90;56.60;;;;;;5054824;28;20029;-43
2021/06/09 11:11:49;;;;;;;2.30;2.20;;;24.90;56.80;;;;;;5055819;28;20112;-42
2021/06/09 11:14:19;;;;;;;2.45;2.35;;;24.90;56.50;;;;;;5054314;28;20402;-42
2021/06/09 11:16:49;;;;;;;2.40;2.25;;;25.00;56.30;;;;;;5036784;28;20029;-42
2021/06/09 11:19:33;;;;;;;3.28;2.50;;;24.80;57.00;;;;;;5056871;28;20117;-43
2021/06/09 11:22:15;;;;;;;2.17;2.08;;;24.90;56.50;;;;;;5057808;28;20025;-43
2021/06/09 11:24:41;;;;;;;2.25;2.15;;;24.90;56.40;;;;;;5056940;28;20447;-42
2021/06/09 11:27:30;;;;;;;3.35;2.00;;;24.80;57.20;;;;;;5054859;28;20104;-42
2021/06/09 11:29:55;;;;;;;2.60;1.90;;;24.80;56.60;;;;;;5051077;28;20041;-42
2021/06/09 11:32:22;;;;;;;2.70;1.98;;;24.90;56.70;;;;;;5048192;28;20032;-43
2021/06/09 11:34:58;;;;;;;2.20;2.10;;;24.70;56.80;;;;;;5066842;28;20123;-42
2021/06/09 11:37:23;;;;;;;2.83;2.45;;;24.70;56.90;;;;;;5058235;28;20552;-42
2021/06/09 11:40:03;;;;;;;2.50;2.40;;;24.80;56.90;;;;;;5052636;28;20021;-43
2021/06/09 11:42:29;;;;;;;2.33;2.05;;;24.80;56.80;;;;;;5056456;28;20033;-43
2021/06/09 11:44:54;;;;;;;2.60;2.30;;;24.80;56.90;;;;;;5056565;28;20028;-42
2021/06/09 11:47:27;;;;;;;2.03;1.92;;;24.90;56.90;;;;;;5054634;28;20557;-42
2021/06/09 11:49:54;;;;;;;2.83;2.10;;;24.80;56.90;;;;;;5053243;28;20451;-40
2021/06/09 11:52:20;;;;;;;2.40;2.20;;;24.80;56.80;;;;;;5058117;28;20028;-40
2021/06/09 11:54:46;;;;;;;3.55;2.33;;;24.80;56.90;;;;;;5055318;28;20028;-39
2021/06/09 11:57:18;;;;;;;2.00;1.90;;;24.70;56.90;;;;;;5055051;28;20475;-41
2021/06/09 11:59:44;;;;;;;2.17;2.08;;;24.80;57.00;;;;;;5055668;28;20029;-39
2021/06/09 12:02:23;;;;;;;2.67;2.47;;;24.90;57.00;;;;;;5052357;28;20024;-41
2021/06/09 12:04:50;;;;;;;2.75;2.20;;;24.80;57.00;;;;;;5052948;28;20555;-41
2021/06/09 12:07:22;;;;;;;2.90;2.20;;;24.90;56.90;;;;;;5056694;28;20442;-41
2021/06/09 12:09:49;;;;;;;2.70;2.50;;;24.80;57.50;;;;;;5056116;28;20041;-41
2021/06/09 12:12:18;;;;;;;3.42;2.53;;;24.90;57.40;;;;;;5055670;28;20021;-41
2021/06/09 12:14:48;;;;;;;2.60;2.17;;;25.00;56.60;;;;;;5055851;28;20111;-41
2021/06/09 12:17:14;;;;;;;2.55;2.33;;;25.10;56.90;;;;;;5051756;28;20025;-40
2021/06/09 12:19:48;;;;;;;5.60;2.10;;;25.00;56.70;;;;;;5053225;28;20017;-34
2021/06/09 12:22:22;;;;;;;2.47;2.33;;;25.00;56.60;;;;;;5055245;28;20025;-41
2021/06/09 12:24:59;;;;;;;2.25;2.15;;;25.10;56.50;;;;;;5055197;28;20051;-41
2021/06/09 12:27:25;;;;;;;2.30;2.20;;;25.10;56.60;;;;;;5055447;28;20076;-41
2021/06/09 12:29:50;;;;;;;5.07;2.20;;;25.00;56.60;;;;;;5055942;28;20033;-41
2021/06/09 12:32:24;;;;;;;2.95;2.10;;;25.00;56.90;;;;;;5052894;28;20033;-40
2021/06/09 12:45:26;;;;;;;2.20;2.10;;;25.10;55.90;;;;;;5106607;27;20121;-32
2021/06/09 12:47:52;;;;;;;2.60;2.40;;;24.90;57.20;;;;;;5084944;28;20028;-35
2021/06/09 12:50:31;;;;;;;3.03;2.00;;;25.00;57.00;;;;;;5077327;28;20033;-33
2021/06/09 12:52:58;;;;;;;2.58;2.38;;;25.10;57.00;;;;;;5086753;28;20501;-34
2021/06/09 12:55:24;;;;;;;2.10;1.92;;;25.20;56.80;;;;;;5084936;28;20061;-34
2021/06/09 12:57:54;;;;;;;2.30;2.20;;;25.20;56.50;;;;;;5075561;28;20527;-31
2021/06/09 13:00:29;;;;;;;2.35;2.15;;;25.20;57.40;;;;;;5077097;28;20032;-34
2021/06/09 13:03:11;;;;;;;2.25;2.03;;;25.20;56.60;;;;;;5085270;28;20038;-35